Time;durP1;ratioP1;P1;durP2;ratioP2;P2;SDS_P1;SDS_P2;PMS_P1;PMS_P2;Temp;Humidity;BMP_temperature;BMP_pressure;BME280_temperature;BME280_humidity;BME280_pressure;Samples;Min_cycle;Max_cycle;Signal;HPM_P1;HPM_P2
2021/12/02 00:01:02;;;;;;;7.82;3.50;;;13.50;62.20;;;;;;4940447;29;20369;-89
2021/12/02 00:03:28;;;;;;;15.55;7.20;;;13.60;62.40;;;;;;4941433;28;20082;-89
2021/12/02 00:05:54;;;;;;;9.52;3.63;;;14.00;62.10;;;;;;4940356;29;20023;-91
2021/12/02 00:08:19;;;;;;;7.78;2.75;;;13.90;62.40;;;;;;4940754;29;20027;-90
2021/12/02 00:10:45;;;;;;;4.53;2.20;;;13.80;62.60;;;;;;4940699;29;20035;-90
2021/12/02 00:13:12;;;;;;;3.97;1.77;;;13.50;63.30;;;;;;4940168;28;20035;-87
2021/12/02 00:16:22;;;;;;;3.72;1.90;;;13.40;63.60;;;;;;4959277;28;20018;-89
2021/12/02 00:21:04;;;;;;;6.05;2.85;;;13.40;64.00;;;;;;4966117;28;20783;-90
2021/12/02 00:21:21;;;;;;;8.38;4.30;;;13.90;63.90;;;;;;4976329;28;20053;-88
2021/12/02 00:24:07;;;;;;;4.50;2.00;;;14.10;63.50;;;;;;4953368;29;20026;-89
2021/12/02 00:26:35;;;;;;;3.67;2.10;;;14.00;63.00;;;;;;4939538;29;20070;-89
2021/12/02 00:29:03;;;;;;;4.57;2.35;;;14.30;63.10;;;;;;4939960;29;20071;-89
2021/12/02 00:31:32;;;;;;;4.75;2.13;;;14.60;61.80;;;;;;4940096;29;20118;-90
2021/12/02 00:34:02;;;;;;;4.25;2.25;;;14.50;62.60;;;;;;4946771;28;20027;-89
2021/12/02 00:36:30;;;;;;;5.50;2.20;;;14.50;62.90;;;;;;4959086;28;20045;-90
2021/12/02 00:38:57;;;;;;;4.03;2.00;;;14.80;62.80;;;;;;4959387;28;20453;-92
2021/12/02 00:41:28;;;;;;;4.97;2.10;;;14.40;62.60;;;;;;4958950;28;20078;-91
2021/12/02 00:43:56;;;;;;;5.28;2.42;;;14.20;63.00;;;;;;4954573;28;20047;-89
2021/12/02 00:46:24;;;;;;;4.40;2.22;;;14.00;64.60;;;;;;4959039;28;20109;-89
2021/12/02 00:48:50;;;;;;;4.97;2.60;;;13.70;65.60;;;;;;4958646;28;20094;-89
2021/12/02 00:51:18;;;;;;;6.18;2.72;;;13.30;66.80;;;;;;4958722;28;20114;-90
2021/12/02 00:53:51;;;;;;;7.70;2.70;;;13.50;66.70;;;;;;4956610;28;20386;-90
2021/12/02 00:56:20;;;;;;;6.32;2.80;;;14.00;65.90;;;;;;4939555;29;20435;-89
2021/12/02 00:58:48;;;;;;;8.10;3.40;;;14.20;65.10;;;;;;4939205;29;20038;-90
2021/12/02 01:01:15;;;;;;;7.50;3.20;;;14.10;65.50;;;;;;4939359;29;20447;-88
2021/12/02 01:03:42;;;;;;;7.43;2.78;;;14.20;65.70;;;;;;4954689;28;20022;-89
2021/12/02 01:06:08;;;;;;;5.88;2.95;;;14.40;64.10;;;;;;4958494;28;20513;-91
2021/12/02 01:08:35;;;;;;;4.85;2.67;;;14.60;63.90;;;;;;4958489;28;20023;-90
2021/12/02 01:11:02;;;;;;;5.88;2.85;;;14.30;64.40;;;;;;4958541;28;20034;-89
2021/12/02 01:13:27;;;;;;;5.78;3.17;;;14.10;65.70;;;;;;4945711;29;20031;-91
2021/12/02 01:15:53;;;;;;;6.15;3.42;;;14.00;65.60;;;;;;4939381;29;20117;-92
2021/12/02 01:18:20;;;;;;;7.30;3.67;;;14.00;65.40;;;;;;4939227;29;20459;-89
2021/12/02 01:20:49;;;;;;;6.40;3.30;;;13.70;66.50;;;;;;4939469;29;20020;-90
2021/12/02 01:23:16;;;;;;;6.65;3.40;;;14.00;66.10;;;;;;4950144;28;20525;-91
2021/12/02 01:25:47;;;;;;;5.43;3.40;;;14.30;65.20;;;;;;4958396;28;20031;-91
2021/12/02 01:28:13;;;;;;;6.97;3.55;;;14.00;66.10;;;;;;4958206;28;20031;-93
2021/12/02 01:30:53;;;;;;;6.22;3.20;;;14.00;65.80;;;;;;4958713;28;20023;-92
2021/12/02 01:33:21;;;;;;;7.25;3.90;;;13.80;66.30;;;;;;4946401;29;20035;-93
2021/12/02 01:35:49;;;;;;;7.78;3.33;;;13.70;66.70;;;;;;4939272;29;20054;-91
2021/12/02 01:38:15;;;;;;;6.88;3.35;;;13.30;67.80;;;;;;4939395;29;20023;-92
2021/12/02 01:40:46;;;;;;;5.85;3.60;;;13.60;67.40;;;;;;4939320;29;20069;-92
2021/12/02 01:43:14;;;;;;;;;;;14.10;66.20;;;;;;4949358;28;20046;-92
2021/12/02 01:45:40;;;;;;;6.97;3.72;;;14.30;65.30;;;;;;4957939;28;19910;-90
2021/12/02 01:48:10;;;;;;;8.20;3.70;;;14.20;65.30;;;;;;4958348;28;20534;-91
2021/12/02 01:50:38;;;;;;;6.90;4.10;;;14.40;64.80;;;;;;4958341;28;20373;-92
2021/12/02 01:53:05;;;;;;;6.43;3.65;;;14.70;64.10;;;;;;4952081;29;20558;-90
2021/12/02 01:55:31;;;;;;;7.78;3.60;;;14.70;64.10;;;;;;4938851;29;20071;-91
2021/12/02 01:58:05;;;;;;;7.85;4.05;;;14.80;63.90;;;;;;4938612;29;20477;-92
2021/12/02 02:00:33;;;;;;;8.85;3.50;;;14.70;64.30;;;;;;4938873;29;20023;-91
2021/12/02 02:03:02;;;;;;;6.75;3.88;;;14.90;63.50;;;;;;4941464;28;20022;-89
2021/12/02 02:05:28;;;;;;;8.55;3.92;;;14.90;63.30;;;;;;4957844;28;20018;-90
2021/12/02 02:08:16;;;;;;;6.65;4.13;;;15.00;63.10;;;;;;4957715;28;20031;-91
2021/12/02 02:10:44;;;;;;;9.40;4.30;;;15.20;62.30;;;;;;4960891;28;20026;-90
2021/12/02 02:13:11;;;;;;;9.07;4.60;;;14.90;63.10;;;;;;4944345;29;20387;-89
2021/12/02 02:15:39;;;;;;;8.57;4.55;;;14.10;64.40;;;;;;4942673;29;20470;-90
2021/12/02 02:20:51;;;;;;;7.60;3.45;;;13.60;66.30;;;;;;4978010;28;20082;-90
2021/12/02 02:23:17;;;;;;;8.43;3.60;;;12.50;69.40;;;;;;4961572;28;20029;-89
2021/12/02 02:25:45;;;;;;;5.95;3.60;;;12.90;69.40;;;;;;4961298;28;20102;-91
2021/12/02 02:28:11;;;;;;;6.47;3.78;;;13.50;67.40;;;;;;4961598;28;20041;-89
2021/12/02 02:30:37;;;;;;;7.50;3.92;;;14.10;66.20;;;;;;4942484;29;20019;-91
2021/12/02 02:33:03;;;;;;;6.93;4.10;;;14.50;64.60;;;;;;4942076;29;20031;-90
2021/12/02 02:35:29;;;;;;;10.77;4.78;;;13.70;66.40;;;;;;4942968;29;20023;-90
2021/12/02 02:37:55;;;;;;;7.25;4.20;;;13.60;66.90;;;;;;4942016;29;20434;-90
2021/12/02 02:40:23;;;;;;;6.85;3.85;;;13.60;67.40;;;;;;4956686;28;20027;-90
2021/12/02 02:42:56;;;;;;;6.88;4.03;;;13.90;66.90;;;;;;4961007;28;20037;-90
2021/12/02 02:45:21;;;;;;;6.22;4.13;;;14.30;65.70;;;;;;4961575;28;20035;-90
2021/12/02 02:47:47;;;;;;;7.75;3.85;;;14.20;65.30;;;;;;4961150;28;20030;-90
2021/12/02 02:50:15;;;;;;;7.68;4.15;;;14.20;65.50;;;;;;4942929;29;20023;-91
2021/12/02 02:52:43;;;;;;;7.28;4.25;;;13.90;66.30;;;;;;4942005;29;20098;-90
2021/12/02 02:55:13;;;;;;;7.05;4.28;;;13.60;66.80;;;;;;4941741;29;20015;-91
2021/12/02 02:57:51;;;;;;;9.65;4.50;;;13.20;67.90;;;;;;4942685;29;20386;-90
2021/12/02 03:00:22;;;;;;;7.80;4.25;;;12.90;69.00;;;;;;4941687;29;20027;-89
2021/12/02 03:02:58;;;;;;;9.50;5.57;;;13.20;68.10;;;;;;4941715;29;20023;-90
2021/12/02 03:08:35;;;;;;;6.95;4.60;;;13.70;67.60;;;;;;4862558;29;20027;-90
2021/12/02 03:11:01;;;;;;;9.85;5.13;;;14.00;66.40;;;;;;4847069;29;20049;-90
2021/12/02 03:19:11;;;;;;;10.27;6.38;;;14.60;64.40;;;;;;4881170;29;20075;-90
2021/12/02 03:21:42;;;;;;;7.13;5.03;;;14.50;65.00;;;;;;4880273;29;20116;-90
2021/12/02 03:24:08;;;;;;;8.73;5.97;;;14.30;65.20;;;;;;4868943;29;20046;-89
2021/12/02 03:26:35;;;;;;;8.68;5.90;;;13.50;67.40;;;;;;4846479;29;20028;-90
2021/12/02 03:29:02;;;;;;;8.50;5.20;;;13.70;67.20;;;;;;4846582;29;20145;-89
2021/12/02 03:31:27;;;;;;;10.00;4.75;;;13.40;66.80;;;;;;4846975;29;20077;-89
2021/12/02 03:33:53;;;;;;;7.32;4.80;;;12.60;69.10;;;;;;4855982;29;20463;-88
2021/12/02 03:38:55;;;;;;;11.93;5.63;;;11.90;72.50;;;;;;5436676;23;20157;-87
2021/12/02 03:41:21;;;;;;;7.70;4.97;;;12.30;72.90;;;;;;4960458;28;20358;-89
2021/12/02 03:43:48;;;;;;;7.30;4.63;;;13.00;69.80;;;;;;4965684;28;20178;-87
2021/12/02 03:46:17;;;;;;;9.30;6.20;;;13.10;68.90;;;;;;4976059;28;20019;-88
2021/12/02 03:48:43;;;;;;;9.52;5.70;;;13.50;69.00;;;;;;4976113;28;20030;-88
2021/12/02 03:51:20;;;;;;;;;;;;;;;;;;;;;
2021/12/02 03:53:47;;;;;;;8.68;4.80;;;14.30;65.70;;;;;;4976567;28;20065;-89
2021/12/02 03:56:14;;;;;;;7.25;4.20;;;14.40;65.00;;;;;;4959977;28;20026;-89
2021/12/02 03:58:42;;;;;;;6.65;4.53;;;13.60;67.30;;;;;;4959752;28;20024;-89
2021/12/02 04:01:09;;;;;;;10.38;5.80;;;13.80;66.80;;;;;;4959714;28;20101;-89
2021/12/02 04:03:35;;;;;;;8.07;5.15;;;13.90;66.30;;;;;;4963570;28;20023;-89
2021/12/02 04:06:01;;;;;;;8.10;5.10;;;13.20;67.80;;;;;;4975563;28;20058;-88
2021/12/02 04:16:27;;;;;;;11.75;6.18;;;13.20;68.90;;;;;;4977148;28;20018;-90
2021/12/02 04:18:53;;;;;;;9.05;5.90;;;13.30;67.60;;;;;;4959046;28;20027;-89
2021/12/02 04:21:19;;;;;;;9.35;6.03;;;13.70;67.00;;;;;;4959329;28;20029;-90
2021/12/02 04:23:44;;;;;;;12.27;6.75;;;13.70;66.10;;;;;;4959633;28;20031;-90
2021/12/02 04:26:10;;;;;;;11.77;6.85;;;13.70;66.30;;;;;;4943989;29;20043;-88
2021/12/02 04:28:36;;;;;;;10.77;6.05;;;14.00;65.60;;;;;;4940333;29;20031;-89
2021/12/02 04:31:02;;;;;;;10.70;6.88;;;13.80;64.90;;;;;;4939706;29;20020;-89
2021/12/02 04:33:29;;;;;;;9.25;5.70;;;13.50;66.10;;;;;;4939087;29;20038;-89
2021/12/02 04:35:56;;;;;;;8.43;5.45;;;13.50;66.20;;;;;;4939934;29;20023;-90
2021/12/02 04:38:22;;;;;;;8.40;5.57;;;13.30;66.30;;;;;;4939946;29;20126;-90
2021/12/02 04:40:48;;;;;;;9.60;5.55;;;13.20;67.00;;;;;;4939829;29;20097;-91
2021/12/02 04:43:14;;;;;;;9.77;6.13;;;13.30;66.90;;;;;;4940105;29;20031;-89
2021/12/02 04:45:40;;;;;;;11.70;6.15;;;13.70;66.10;;;;;;4939842;29;20023;-89
2021/12/02 04:48:06;;;;;;;8.50;5.47;;;13.80;65.40;;;;;;4939724;29;20059;-89
2021/12/02 04:50:32;;;;;;;9.23;6.13;;;13.50;65.80;;;;;;4942348;28;20022;-87
2021/12/02 04:52:58;;;;;;;11.50;7.45;;;13.60;65.70;;;;;;4958697;28;20038;-89
2021/12/02 04:55:29;;;;;;;9.60;5.68;;;14.00;64.60;;;;;;4958616;28;20019;-89
2021/12/02 04:57:55;;;;;;;11.13;6.55;;;14.20;64.50;;;;;;4958723;28;20027;-88
2021/12/02 05:00:21;;;;;;;9.77;6.05;;;14.10;64.20;;;;;;4949836;28;20031;-87
2021/12/02 05:02:47;;;;;;;13.15;7.05;;;13.90;64.70;;;;;;4939481;29;20031;-89
2021/12/02 05:05:13;;;;;;;10.43;7.45;;;13.40;66.40;;;;;;4939393;29;20028;-88
2021/12/02 05:07:38;;;;;;;13.60;10.38;;;13.60;65.60;;;;;;4939524;29;20016;-88
2021/12/02 05:10:06;;;;;;;17.40;10.93;;;14.00;65.50;;;;;;4939278;29;20459;-89
2021/12/02 05:12:32;;;;;;;12.77;8.50;;;14.10;64.90;;;;;;4938465;29;20046;-88
2021/12/02 05:14:58;;;;;;;16.13;10.02;;;14.20;63.70;;;;;;4939327;29;20036;-86
2021/12/02 05:17:24;;;;;;;20.98;11.45;;;14.20;64.00;;;;;;4939658;29;20449;-88
2021/12/02 05:19:50;;;;;;;36.08;20.90;;;14.40;63.70;;;;;;4939276;29;20023;-85
2021/12/02 05:22:15;;;;;;;12.95;8.15;;;14.70;62.80;;;;;;4947073;29;20024;-87
2021/12/02 05:24:41;;;;;;;15.02;9.48;;;14.40;63.40;;;;;;4938599;29;20421;-87
2021/12/02 05:27:07;;;;;;;18.50;11.27;;;14.20;64.10;;;;;;4941392;28;20023;-86
2021/12/02 05:29:33;;;;;;;15.57;10.10;;;14.00;63.50;;;;;;4944362;28;20430;-87
2021/12/02 05:32:00;;;;;;;22.15;13.95;;;14.10;63.10;;;;;;4958279;28;20454;-87
2021/12/02 05:34:29;;;;;;;22.23;12.40;;;14.00;64.10;;;;;;4941860;29;20042;-89
2021/12/02 05:36:54;;;;;;;20.05;10.80;;;14.00;63.20;;;;;;4939153;29;20015;-87
2021/12/02 05:39:20;;;;;;;27.83;18.50;;;13.80;63.50;;;;;;4941379;28;20467;-87
2021/12/02 05:41:46;;;;;;;32.78;20.85;;;13.70;64.10;;;;;;4940381;29;20093;-84
2021/12/02 05:44:12;;;;;;;48.28;28.65;;;13.90;63.60;;;;;;4938752;29;20434;-86
2021/12/02 05:46:38;;;;;;;64.70;35.45;;;14.10;63.40;;;;;;4938332;29;20031;-87
2021/12/02 05:49:04;;;;;;;43.05;24.38;;;14.10;63.60;;;;;;4930398;29;20059;-87
2021/12/02 05:51:30;;;;;;;38.25;22.90;;;14.10;63.60;;;;;;4943653;28;20049;-87
2021/12/02 05:53:56;;;;;;;80.32;39.90;;;13.80;64.60;;;;;;4947427;29;20110;-89
2021/12/02 05:56:22;;;;;;;118.13;57.90;;;13.80;63.30;;;;;;4938730;29;20034;-88
2021/12/02 05:58:47;;;;;;;149.38;70.97;;;13.60;63.40;;;;;;4938409;29;20538;-89
2021/12/02 06:01:13;;;;;;;105.72;53.05;;;13.90;63.20;;;;;;4938480;29;20032;-88
2021/12/02 06:03:40;;;;;;;114.57;54.80;;;13.80;63.60;;;;;;4938518;29;20031;-89
2021/12/02 06:06:06;;;;;;;90.00;45.58;;;14.00;63.10;;;;;;4938524;29;20027;-89
2021/12/02 06:08:32;;;;;;;85.28;44.30;;;14.10;62.80;;;;;;4938332;29;20038;-89
2021/12/02 06:10:58;;;;;;;69.93;37.75;;;14.00;63.40;;;;;;4937789;29;20094;-89
2021/12/02 06:13:26;;;;;;;61.60;34.45;;;14.10;63.10;;;;;;4938566;29;20043;-89
2021/12/02 06:15:52;;;;;;;64.95;34.17;;;14.20;62.50;;;;;;4938103;29;20499;-88
2021/12/02 06:18:18;;;;;;;57.15;28.80;;;14.40;62.20;;;;;;4938227;29;20050;-86
2021/12/02 06:20:47;;;;;;;77.38;38.78;;;14.30;62.50;;;;;;4955607;28;20467;-87
2021/12/02 06:23:13;;;;;;;51.45;26.13;;;14.30;62.00;;;;;;4957345;28;20386;-86
2021/12/02 06:28:05;;;;;;;28.92;17.60;;;13.20;64.70;;;;;;4974832;28;20043;-87
2021/12/02 06:30:32;;;;;;;32.55;18.73;;;13.20;65.20;;;;;;4957496;28;20023;-88
2021/12/02 06:32:57;;;;;;;36.28;21.90;;;13.60;63.80;;;;;;4957354;28;20093;-86
2021/12/02 06:35:23;;;;;;;36.78;22.75;;;13.90;63.10;;;;;;4935002;29;20031;-89
2021/12/02 06:37:49;;;;;;;39.33;22.40;;;14.10;62.50;;;;;;4935247;29;20395;-87
2021/12/02 06:40:15;;;;;;;39.38;22.67;;;14.30;61.80;;;;;;4952888;28;20043;-87
2021/12/02 06:42:41;;;;;;;42.00;23.48;;;14.10;61.40;;;;;;4951748;28;20034;-88
2021/12/02 06:45:09;;;;;;;33.72;21.17;;;13.50;63.00;;;;;;4946924;29;20130;-86
2021/12/02 06:47:40;;;;;;;38.72;24.17;;;13.60;63.20;;;;;;4937943;29;20035;-87
2021/12/02 06:50:09;;;;;;;29.95;18.92;;;13.60;63.60;;;;;;4938149;29;20398;-85
2021/12/02 06:52:35;;;;;;;25.98;17.10;;;13.20;64.70;;;;;;4952901;28;20031;-86
2021/12/02 06:55:01;;;;;;;30.63;20.25;;;13.40;65.30;;;;;;4948965;28;20027;-87
2021/12/02 06:57:27;;;;;;;33.10;21.50;;;13.10;65.60;;;;;;4956242;28;20046;-88
2021/12/02 06:59:52;;;;;;;42.80;26.52;;;12.90;66.50;;;;;;4952947;28;20037;-88
2021/12/02 07:02:18;;;;;;;39.28;24.02;;;12.60;67.70;;;;;;4961276;28;20038;-88
2021/12/02 07:04:45;;;;;;;43.10;29.30;;;12.80;67.40;;;;;;4958035;29;20390;-89
2021/12/02 07:07:10;;;;;;;36.35;22.38;;;13.30;65.70;;;;;;4941248;29;20023;-90
2021/12/02 07:09:36;;;;;;;39.15;22.92;;;13.00;65.50;;;;;;4940991;29;20024;-89
2021/12/02 07:12:02;;;;;;;35.78;23.67;;;13.00;65.40;;;;;;4941116;29;20034;-90
2021/12/02 07:14:28;;;;;;;32.72;21.75;;;13.10;65.70;;;;;;4941527;29;20126;-90
2021/12/02 07:16:54;;;;;;;34.15;22.13;;;13.00;65.80;;;;;;4941103;29;20498;-90
2021/12/02 07:19:20;;;;;;;31.15;19.88;;;12.80;66.10;;;;;;4940979;29;20094;-90
2021/12/02 07:21:46;;;;;;;29.80;18.88;;;12.90;66.30;;;;;;4940961;29;20023;-90
2021/12/02 07:24:15;;;;;;;25.52;16.70;;;13.20;65.80;;;;;;4939978;29;20020;-90
2021/12/02 07:26:43;;;;;;;24.77;16.45;;;13.30;65.60;;;;;;4938832;29;20072;-89
2021/12/02 07:29:10;;;;;;;36.38;23.02;;;13.70;65.10;;;;;;4939130;29;20035;-90
2021/12/02 07:31:38;;;;;;;45.97;28.27;;;13.80;65.00;;;;;;4939143;29;20499;-89
2021/12/02 07:34:03;;;;;;;38.63;25.45;;;14.00;64.50;;;;;;4939189;29;20039;-89
2021/12/02 07:36:31;;;;;;;29.17;19.08;;;14.20;63.60;;;;;;4939148;29;20026;-91
2021/12/02 07:38:59;;;;;;;28.52;20.88;;;14.40;63.40;;;;;;4939858;29;20078;-90
2021/12/02 07:41:25;;;;;;;27.52;19.95;;;14.70;62.70;;;;;;4940606;29;20023;-89
2021/12/02 07:43:51;;;;;;;35.08;24.98;;;14.70;62.20;;;;;;4940840;29;20165;-91
2021/12/02 07:46:17;;;;;;;36.40;23.38;;;14.50;63.10;;;;;;4940456;29;20030;-90
2021/12/02 07:48:42;;;;;;;27.67;19.65;;;14.40;62.50;;;;;;4940318;29;20491;-91
2021/12/02 07:51:17;;;;;;;32.60;20.98;;;14.10;63.40;;;;;;4940350;29;20026;-90
2021/12/02 07:53:45;;;;;;;27.10;18.92;;;13.80;64.10;;;;;;4940260;29;20494;-89
2021/12/02 07:56:14;;;;;;;32.70;20.58;;;14.10;64.30;;;;;;4940177;29;20166;-90
2021/12/02 07:58:42;;;;;;;23.27;16.48;;;14.40;63.40;;;;;;4940803;29;20037;-90
2021/12/02 08:01:09;;;;;;;35.03;24.88;;;14.70;62.90;;;;;;4940204;29;20113;-90
2021/12/02 08:03:35;;;;;;;38.03;25.55;;;14.70;62.80;;;;;;4939900;29;20038;-89
2021/12/02 08:06:00;;;;;;;19.70;14.20;;;14.70;62.40;;;;;;4940366;29;20031;-89
2021/12/02 08:08:26;;;;;;;38.55;22.55;;;13.90;64.00;;;;;;4939855;29;20170;-89
2021/12/02 08:10:52;;;;;;;33.13;21.33;;;13.60;65.50;;;;;;4939822;29;20034;-89
2021/12/02 08:13:19;;;;;;;33.35;22.45;;;13.80;65.00;;;;;;4939975;29;20050;-89
2021/12/02 08:15:45;;;;;;;27.38;18.90;;;14.10;64.30;;;;;;4939837;29;20027;-89
2021/12/02 08:18:11;;;;;;;21.02;15.65;;;14.10;64.80;;;;;;4939884;29;20375;-90
2021/12/02 08:20:37;;;;;;;27.63;19.40;;;14.20;64.20;;;;;;4940275;29;20110;-90
2021/12/02 08:23:04;;;;;;;22.52;16.50;;;14.00;64.40;;;;;;4939904;29;20034;-89
2021/12/02 08:25:31;;;;;;;29.85;20.83;;;14.30;64.10;;;;;;4939537;29;20023;-89
2021/12/02 08:59:30;;;;;;;59.65;37.72;;;14.40;63.90;;;;;;5099539;23;20141;-88
2021/12/02 09:01:56;;;;;;;53.22;37.65;;;14.50;63.60;;;;;;4939393;29;20055;-88
2021/12/02 09:04:22;;;;;;;50.60;33.83;;;14.40;64.20;;;;;;4956291;29;20055;-89
2021/12/02 10:00:06;;;;;;;23.73;14.70;;;14.10;65.40;;;;;;5160115;23;20044;-91
2021/12/02 10:43:26;;;;;;;38.50;25.75;;;14.60;64.80;;;;;;5813026;23;20032;-85
2021/12/02 10:45:52;;;;;;;48.28;32.08;;;14.90;64.30;;;;;;4864797;29;20072;-91
2021/12/02 11:14:21;;;;;;;38.47;27.85;;;15.50;62.70;;;;;;5647261;23;20438;-86
2021/12/02 11:16:47;;;;;;;50.03;33.72;;;15.50;63.00;;;;;;4866157;29;20092;-87
2021/12/02 11:19:19;;;;;;;60.33;37.28;;;15.40;62.90;;;;;;4881861;29;20036;-87
2021/12/02 11:21:45;;;;;;;54.78;36.40;;;15.20;63.30;;;;;;4882271;29;20117;-87
2021/12/02 11:24:30;;;;;;;54.95;35.72;;;15.20;63.10;;;;;;4880738;29;20033;-87
2021/12/02 11:27:23;;;;;;;45.63;33.22;;;15.30;63.30;;;;;;4846840;29;20545;-87
2021/12/02 12:01:28;;;;;;;48.90;31.83;;;13.60;68.30;;;;;;5347544;23;20505;-86
2021/12/02 12:04:00;;;;;;;46.17;29.20;;;13.80;68.10;;;;;;4864997;29;20025;-86
2021/12/02 12:06:34;;;;;;;43.75;27.20;;;14.30;66.50;;;;;;4864966;29;20036;-86
2021/12/02 12:09:04;;;;;;;39.55;26.48;;;14.50;65.90;;;;;;4864980;29;20057;-86
2021/12/02 12:11:32;;;;;;;47.70;31.27;;;14.70;65.00;;;;;;4864891;29;20036;-86
2021/12/02 12:14:04;;;;;;;55.47;33.35;;;14.90;64.80;;;;;;4864472;29;20085;-87
2021/12/02 12:16:36;;;;;;;51.50;34.42;;;15.00;64.40;;;;;;4864863;29;20017;-86
2021/12/02 12:19:20;;;;;;;45.55;30.73;;;15.00;64.60;;;;;;4881210;29;20033;-86
2021/12/02 12:22:15;;;;;;;59.72;36.17;;;15.40;64.00;;;;;;4864535;29;20017;-86
2021/12/02 12:24:49;;;;;;;51.90;33.38;;;15.40;63.90;;;;;;4862713;29;20045;-88
2021/12/02 12:27:15;;;;;;;36.17;25.67;;;15.60;63.90;;;;;;4862673;29;20029;-86
2021/12/02 12:29:41;;;;;;;40.10;26.95;;;15.60;63.30;;;;;;4845866;29;20347;-86
2021/12/02 12:32:14;;;;;;;51.65;30.98;;;15.60;63.70;;;;;;4862222;29;20029;-86
2021/12/02 12:37:24;;;;;;;40.85;27.05;;;15.60;63.60;;;;;;4862440;29;20033;-86
2021/12/02 12:40:25;;;;;;;35.53;23.25;;;15.50;63.30;;;;;;4846382;29;20032;-86
2021/12/02 12:42:50;;;;;;;33.25;22.05;;;15.50;63.30;;;;;;4772712;30;20038;-87
2021/12/02 12:45:39;;;;;;;37.95;24.02;;;15.60;63.30;;;;;;4772616;30;20031;-87
2021/12/02 12:48:07;;;;;;;37.33;23.92;;;15.40;63.60;;;;;;4787527;30;20142;-86
2021/12/02 12:50:36;;;;;;;35.67;24.60;;;15.40;63.40;;;;;;4787763;30;20059;-87
2021/12/02 12:53:04;;;;;;;38.15;24.02;;;15.20;64.10;;;;;;4787342;29;20502;-86
2021/12/02 12:55:49;;;;;;;33.67;22.38;;;15.10;63.90;;;;;;4772141;30;20372;-86
2021/12/02 12:58:25;;;;;;;30.75;22.13;;;15.10;64.30;;;;;;4772462;29;20046;-86
2021/12/02 13:00:55;;;;;;;35.22;22.05;;;15.10;64.00;;;;;;4772303;30;20039;-86
2021/12/02 13:03:33;;;;;;;32.95;21.65;;;15.20;63.80;;;;;;4772440;30;20487;-86
2021/12/02 13:06:17;;;;;;;32.70;22.65;;;15.30;63.80;;;;;;4772084;29;20036;-86
2021/12/02 13:40:14;;;;;;;35.25;23.67;;;15.10;64.60;;;;;;5917705;23;20116;31
2021/12/02 13:42:41;;;;;;;40.83;27.58;;;15.20;64.80;;;;;;4821891;29;20047;-87
2021/12/02 13:45:25;;;;;;;31.33;21.75;;;15.20;64.50;;;;;;4823476;29;20027;-86
2021/12/02 13:57:56;;;;;;;40.40;26.55;;;15.30;63.80;;;;;;4804767;24;20106;-86
2021/12/02 14:27:36;;;;;;;73.25;45.97;;;15.30;64.20;;;;;;5692044;23;20417;-89
2021/12/02 14:36:49;;;;;;;45.63;27.58;;;15.30;63.50;;;;;;5054798;23;20096;-88
2021/12/02 14:41:58;;;;;;;49.42;27.25;;;15.30;63.60;;;;;;5363084;23;20064;-89
2021/12/02 14:56:35;;;;;;;122.13;38.53;;;15.50;62.80;;;;;;4854492;29;20057;-88
2021/12/02 14:59:15;;;;;;;86.00;33.25;;;15.40;63.00;;;;;;4845805;29;20033;-88
2021/12/02 15:05:18;;;;;;;69.38;34.17;;;15.40;62.90;;;;;;4801048;23;20075;-89
2021/12/02 15:20:45;;;;;;;58.85;36.85;;;15.20;63.70;;;;;;4882575;29;20032;-85
2021/12/02 15:29:08;;;;;;;65.40;34.38;;;15.50;62.80;;;;;;5771246;23;20053;-87
2021/12/02 15:48:04;;;;;;;43.53;24.98;;;15.00;63.20;;;;;;4873304;24;20056;-85
2021/12/02 15:53:55;;;;;;;53.35;27.85;;;14.50;63.90;;;;;;4625816;24;10001881;-86
2021/12/02 15:56:20;;;;;;;35.78;24.52;;;14.40;64.70;;;;;;4842704;29;20036;-90
2021/12/02 15:58:46;;;;;;;60.63;32.13;;;14.60;64.40;;;;;;4843042;29;20026;-87
2021/12/02 16:07:08;;;;;;;85.93;50.72;;;14.80;63.80;;;;;;4935062;23;20104;-87
2021/12/02 16:15:16;;;;;;;55.00;33.58;;;14.00;66.20;;;;;;4892822;23;20060;-86
2021/12/02 16:20:29;;;;;;;80.63;43.15;;;13.90;67.50;;;;;;4879623;23;20046;-86
2021/12/02 16:22:58;;;;;;;92.75;47.90;;;14.20;65.50;;;;;;4840642;29;20799;-85
2021/12/02 16:25:26;;;;;;;75.60;42.13;;;14.60;64.60;;;;;;4859322;29;20050;-85
2021/12/02 16:27:59;;;;;;;67.55;39.67;;;14.90;64.00;;;;;;4860370;29;20029;-86
2021/12/02 16:30:27;;;;;;;73.03;42.40;;;14.90;62.90;;;;;;4835660;29;20033;-87
2021/12/02 16:32:56;;;;;;;132.93;53.45;;;14.70;63.30;;;;;;4860707;29;20615;-87
2021/12/02 16:35:41;;;;;;;117.47;53.30;;;14.60;63.40;;;;;;4830400;29;20090;-86
2021/12/02 16:40:32;;;;;;;56.35;34.05;;;14.70;63.30;;;;;;4860953;23;20111;-86
2021/12/02 16:43:07;;;;;;;131.90;59.53;;;14.30;64.60;;;;;;4845686;29;20025;-88
2021/12/02 16:45:38;;;;;;;84.57;46.38;;;14.30;65.10;;;;;;4825184;29;20062;-85
2021/12/02 16:48:04;;;;;;;76.43;44.35;;;14.50;64.20;;;;;;4826541;29;20022;-86
2021/12/02 16:52:59;;;;;;;110.90;54.63;;;15.00;63.40;;;;;;4886181;23;20791;-83
2021/12/02 16:55:26;;;;;;;104.38;44.28;;;15.10;63.00;;;;;;4858484;29;20030;-86
2021/12/02 16:57:54;;;;;;;84.22;32.47;;;15.20;62.50;;;;;;4844675;29;20085;-85
2021/12/02 17:04:02;;;;;;;;;;;;;;;;;;;;;
2021/12/02 17:06:34;;;;;;;83.63;37.47;;;15.20;63.00;;;;;;4861138;29;20027;-85
2021/12/02 17:09:04;;;;;;;99.60;39.15;;;15.20;62.50;;;;;;4862918;29;20060;-86
2021/12/02 17:14:53;;;;;;;232.38;48.55;;;15.50;61.90;;;;;;4878512;24;20068;-85
2021/12/02 17:17:19;;;;;;;94.07;36.22;;;15.40;62.20;;;;;;4860439;29;20030;-87
2021/12/02 17:25:44;;;;;;;83.88;35.17;;;14.50;63.30;;;;;;4867659;24;20068;-87
2021/12/02 17:34:22;;;;;;;62.55;33.80;;;14.70;63.60;;;;;;5044280;23;20056;-85
2021/12/02 17:40:36;;;;;;;88.93;33.05;;;14.70;63.10;;;;;;4860921;29;20060;-87
2021/12/02 17:43:17;;;;;;;71.43;33.65;;;14.90;63.20;;;;;;4849110;29;21812;-86
2021/12/02 17:45:43;;;;;;;46.95;28.27;;;15.00;62.80;;;;;;4896201;23;20830;-85
2021/12/02 17:48:34;;;;;;;112.15;39.33;;;14.80;63.20;;;;;;4862186;29;20059;-85
2021/12/02 17:51:26;;;;;;;107.20;38.17;;;14.10;65.40;;;;;;4859244;29;20382;-86
2021/12/02 17:53:52;;;;;;;72.28;31.40;;;14.20;65.20;;;;;;4842652;29;20438;-86
2021/12/02 17:56:20;;;;;;;90.75;40.70;;;14.40;64.80;;;;;;4843195;29;20363;-85
2021/12/02 17:58:46;;;;;;;65.47;32.30;;;14.40;63.90;;;;;;4852525;24;20176;-86
2021/12/02 18:01:12;;;;;;;135.38;40.45;;;14.40;64.00;;;;;;4861176;29;20164;-85
2021/12/02 18:03:42;;;;;;;51.55;28.70;;;14.40;63.90;;;;;;4847278;29;20025;-84
2021/12/02 18:09:30;;;;;;;48.63;32.08;;;14.50;63.70;;;;;;4879607;24;20093;-84
2021/12/02 18:14:36;;;;;;;53.83;35.17;;;13.60;67.00;;;;;;4873366;23;20072;-87
2021/12/02 18:22:37;;;;;;;79.30;39.20;;;13.90;65.20;;;;;;5426722;23;20057;-85
2021/12/02 18:25:08;;;;;;;93.32;37.75;;;13.70;65.00;;;;;;4809101;24;20034;-85
2021/12/02 18:27:35;;;;;;;107.22;41.33;;;13.50;65.40;;;;;;4859803;29;20112;-85
2021/12/02 18:30:04;;;;;;;67.95;37.72;;;13.70;65.10;;;;;;4871059;29;20021;-83
2021/12/02 18:32:31;;;;;;;151.20;53.15;;;14.00;64.80;;;;;;4849182;29;20025;-83
2021/12/02 18:34:56;;;;;;;264.55;82.80;;;13.60;66.00;;;;;;4842725;29;20049;-84
2021/12/02 18:37:22;;;;;;;246.80;78.45;;;13.70;66.20;;;;;;4842748;29;20034;-87
2021/12/02 18:39:50;;;;;;;153.40;60.08;;;14.00;65.10;;;;;;4842744;29;20034;-87
2021/12/02 18:42:15;;;;;;;284.02;74.68;;;14.30;64.70;;;;;;4842974;29;20802;-85
2021/12/02 18:44:41;;;;;;;147.50;54.60;;;14.60;63.60;;;;;;4857218;29;20040;-84
2021/12/02 18:50:29;;;;;;;124.70;44.28;;;14.20;63.80;;;;;;4882510;24;20569;-84
2021/12/02 18:52:55;;;;;;;308.55;70.40;;;14.20;64.00;;;;;;4855844;29;20045;-85
2021/12/02 18:58:02;;;;;;;325.25;78.15;;;14.40;63.60;;;;;;4891340;23;20078;-85
2021/12/02 19:03:37;;;;;;;104.07;46.50;;;14.50;63.70;;;;;;4851363;29;20076;-89
2021/12/02 19:09:47;;;;;;;148.85;44.58;;;14.10;63.60;;;;;;4881083;23;20184;-87
2021/12/02 19:26:35;;;;;;;158.90;66.18;;;14.50;63.90;;;;;;4821357;29;20521;-87
2021/12/02 19:29:06;;;;;;;127.28;52.15;;;14.60;63.20;;;;;;4819438;29;20092;-86
2021/12/02 19:31:32;;;;;;;110.38;42.50;;;14.30;63.80;;;;;;4797913;29;20046;-89
2021/12/02 19:34:21;;;;;;;97.43;40.17;;;14.20;64.10;;;;;;4808422;29;20533;-85
2021/12/02 19:36:46;;;;;;;66.32;34.50;;;14.10;63.90;;;;;;4809084;29;20083;-85
2021/12/02 19:39:13;;;;;;;81.82;37.58;;;14.10;64.40;;;;;;4824042;29;20074;-88
2021/12/02 19:41:40;;;;;;;91.32;42.30;;;14.00;64.70;;;;;;4808391;29;20079;-88
2021/12/02 19:44:06;;;;;;;53.85;33.20;;;14.10;64.50;;;;;;4808382;29;20042;-86
2021/12/02 19:53:28;;;;;;;128.35;69.72;;;14.30;64.10;;;;;;4862205;29;20078;-86